Time;durP1;ratioP1;P1;durP2;ratioP2;P2;SDS_P1;SDS_P2;PMS_P1;PMS_P2;Temp;Humidity;BMP_temperature;BMP_pressure;BME280_temperature;BME280_humidity;BME280_pressure;Samples;Min_cycle;Max_cycle;Signal;HPM_P1;HPM_P2
2023/12/31 00:01:05;;;;;;;26.63;17.00;;;1.20;99.90;;;;;;4977247;28;20224;-72
2023/12/31 00:03:33;;;;;;;22.53;15.50;;;1.20;99.90;;;;;;4977245;28;20208;-72
2023/12/31 00:06:00;;;;;;;24.53;16.67;;;1.20;99.90;;;;;;4977250;28;20737;-72
2023/12/31 00:08:26;;;;;;;20.50;15.47;;;1.20;99.90;;;;;;4977076;28;20252;-72
2023/12/31 00:10:53;;;;;;;24.60;16.03;;;1.20;99.90;;;;;;4976988;28;20204;-72
2023/12/31 00:13:20;;;;;;;23.27;14.47;;;1.00;99.90;;;;;;4977144;28;20716;-72
2023/12/31 00:15:46;;;;;;;25.27;14.97;;;1.00;99.90;;;;;;4977032;28;20204;-72
2023/12/31 00:18:13;;;;;;;23.00;15.17;;;1.00;99.90;;;;;;4977009;28;20208;-72
2023/12/31 00:20:41;;;;;;;21.90;14.90;;;1.00;99.90;;;;;;4976656;28;20699;-72
2023/12/31 00:23:11;;;;;;;18.10;14.50;;;0.90;99.90;;;;;;4976769;28;20247;-72
2023/12/31 00:25:38;;;;;;;20.47;13.77;;;0.90;99.90;;;;;;4976661;28;20695;-72
2023/12/31 00:28:05;;;;;;;20.77;14.13;;;0.90;99.90;;;;;;4976851;28;20200;-72
2023/12/31 00:30:31;;;;;;;24.30;14.03;;;0.80;99.90;;;;;;4976770;28;20209;-72
2023/12/31 00:32:58;;;;;;;20.97;14.23;;;0.80;99.90;;;;;;4976656;28;20252;-72
2023/12/31 00:35:25;;;;;;;20.77;14.13;;;0.80;99.90;;;;;;4976638;28;20608;-72
2023/12/31 00:37:53;;;;;;;19.70;13.30;;;0.70;99.90;;;;;;4976478;28;20270;-72
2023/12/31 00:40:19;;;;;;;21.50;14.37;;;0.80;99.90;;;;;;4976407;28;20604;-71
2023/12/31 00:42:46;;;;;;;20.63;14.53;;;0.80;99.90;;;;;;4976130;28;20232;-71
2023/12/31 00:45:13;;;;;;;19.80;14.13;;;0.90;99.90;;;;;;4976368;28;20204;-72
2023/12/31 00:47:39;;;;;;;24.50;14.50;;;0.90;99.90;;;;;;4975814;28;20664;-72
2023/12/31 00:50:07;;;;;;;19.07;13.63;;;1.00;99.90;;;;;;4976345;28;20200;-72
2023/12/31 00:52:34;;;;;;;19.47;14.77;;;1.00;99.90;;;;;;4976073;28;20664;-71
2023/12/31 00:55:02;;;;;;;22.50;14.93;;;1.00;99.90;;;;;;4976369;28;20204;-71
2023/12/31 00:57:29;;;;;;;18.93;14.40;;;1.10;99.90;;;;;;4976293;28;20223;-71
2023/12/31 00:59:56;;;;;;;22.60;14.57;;;1.10;99.90;;;;;;4976169;28;20201;-71
2023/12/31 01:02:22;;;;;;;22.73;14.87;;;1.00;99.90;;;;;;4976024;28;20278;-71
2023/12/31 01:04:49;;;;;;;21.37;13.40;;;1.00;99.90;;;;;;4975972;28;20728;-71
2023/12/31 01:07:17;;;;;;;21.00;14.10;;;1.00;99.90;;;;;;4975881;28;20204;-72
2023/12/31 01:09:43;;;;;;;22.53;14.60;;;1.10;99.90;;;;;;4976394;28;20232;-72
2023/12/31 01:12:11;;;;;;;22.07;14.97;;;1.00;99.90;;;;;;4975957;28;20200;-72
2023/12/31 01:14:38;;;;;;;24.80;15.13;;;1.00;99.90;;;;;;4975904;28;20244;-72
2023/12/31 01:17:05;;;;;;;20.97;13.87;;;0.90;99.90;;;;;;4975872;28;20204;-72
2023/12/31 01:19:31;;;;;;;18.80;13.50;;;0.90;99.90;;;;;;4975800;28;20204;-72
2023/12/31 01:21:58;;;;;;;21.83;13.77;;;0.80;99.90;;;;;;4975586;28;20229;-72
2023/12/31 01:24:24;;;;;;;20.40;14.43;;;0.70;99.90;;;;;;4975811;28;20200;-72
2023/12/31 01:26:51;;;;;;;21.03;15.00;;;0.60;99.90;;;;;;4975756;28;20200;-71
2023/12/31 01:29:19;;;;;;;21.77;13.97;;;0.60;99.90;;;;;;4975531;28;20653;-72
2023/12/31 01:31:46;;;;;;;23.33;14.93;;;0.60;99.90;;;;;;4975762;28;20212;-72
2023/12/31 01:34:13;;;;;;;19.57;13.77;;;0.70;99.90;;;;;;4975402;28;20660;-72
2023/12/31 01:36:39;;;;;;;20.57;13.57;;;0.70;99.90;;;;;;4975801;28;20212;-72
2023/12/31 01:39:07;;;;;;;21.40;13.57;;;0.70;99.90;;;;;;4975500;28;20259;-72
2023/12/31 01:41:34;;;;;;;21.73;13.77;;;0.70;99.90;;;;;;4975395;28;20267;-72
2023/12/31 01:44:02;;;;;;;20.60;13.53;;;0.60;99.90;;;;;;4975156;28;20636;-72
2023/12/31 01:46:31;;;;;;;23.10;14.30;;;0.60;99.90;;;;;;4975272;28;20668;-72
2023/12/31 01:48:59;;;;;;;21.93;14.60;;;0.60;99.90;;;;;;4975099;28;20200;-72
2023/12/31 01:51:27;;;;;;;21.50;13.60;;;0.70;99.90;;;;;;4975306;28;20208;-72
2023/12/31 01:53:54;;;;;;;25.50;14.30;;;0.60;99.90;;;;;;4975372;28;20230;-72
2023/12/31 01:56:21;;;;;;;18.10;12.87;;;0.60;99.90;;;;;;4975106;28;20258;-73
2023/12/31 01:58:48;;;;;;;19.90;13.57;;;0.50;99.90;;;;;;4974761;28;20201;-72
2023/12/31 02:01:16;;;;;;;20.07;12.83;;;0.50;99.90;;;;;;4974381;28;20228;-72
2023/12/31 02:03:44;;;;;;;21.50;13.90;;;0.40;99.90;;;;;;4974829;28;20208;-72
2023/12/31 02:06:10;;;;;;;16.57;12.40;;;0.40;99.90;;;;;;4975093;28;20212;-72
2023/12/31 02:08:37;;;;;;;17.00;12.23;;;0.30;99.90;;;;;;4974949;28;20212;-72
2023/12/31 02:11:04;;;;;;;19.50;12.87;;;0.40;99.90;;;;;;4974856;28;20204;-72
2023/12/31 02:13:31;;;;;;;19.73;12.90;;;0.40;99.90;;;;;;4974804;28;20201;-72
2023/12/31 02:15:58;;;;;;;17.03;12.73;;;0.40;99.90;;;;;;4974764;28;20259;-72
2023/12/31 02:18:25;;;;;;;17.77;12.97;;;0.30;99.90;;;;;;4974665;28;20208;-72
2023/12/31 02:20:53;;;;;;;24.67;12.70;;;0.30;99.90;;;;;;4975031;28;20307;-72
2023/12/31 02:23:20;;;;;;;20.77;13.37;;;0.30;99.90;;;;;;4974595;28;20566;-72
2023/12/31 02:25:52;;;;;;;17.60;12.57;;;0.30;99.90;;;;;;4974645;28;20204;-71
2023/12/31 02:28:20;;;;;;;19.17;13.43;;;0.30;99.90;;;;;;4974532;28;20258;-72
2023/12/31 02:30:47;;;;;;;20.00;13.80;;;0.40;99.90;;;;;;4974366;28;20259;-72
2023/12/31 02:33:14;;;;;;;21.00;13.67;;;0.40;99.90;;;;;;4974641;28;20201;-72
2023/12/31 02:35:41;;;;;;;19.77;13.70;;;0.50;99.90;;;;;;4974285;28;20576;-72
2023/12/31 02:38:07;;;;;;;24.47;14.60;;;0.40;99.90;;;;;;4974696;28;20298;-71
2023/12/31 02:40:34;;;;;;;18.80;13.20;;;0.30;99.90;;;;;;4974274;28;20207;-72
2023/12/31 02:43:00;;;;;;;19.03;12.73;;;0.20;99.90;;;;;;4973978;28;20247;-72
2023/12/31 02:45:28;;;;;;;21.00;13.60;;;0.30;99.90;;;;;;4974177;28;20197;-72
2023/12/31 02:47:55;;;;;;;22.43;13.10;;;0.20;99.90;;;;;;4974138;28;20533;-71
2023/12/31 02:50:22;;;;;;;18.93;13.40;;;0.20;99.90;;;;;;4974312;28;20200;-72
2023/12/31 02:52:49;;;;;;;18.60;12.83;;;0.20;99.90;;;;;;4974247;28;20310;-72
2023/12/31 02:55:15;;;;;;;19.93;13.57;;;0.20;99.90;;;;;;4974109;28;20264;-71
2023/12/31 02:57:42;;;;;;;22.43;13.60;;;0.30;99.90;;;;;;4974100;28;20601;-71
2023/12/31 03:00:09;;;;;;;19.13;13.47;;;0.50;99.90;;;;;;4974296;28;20234;-72
2023/12/31 03:02:40;;;;;;;18.83;12.97;;;0.30;99.90;;;;;;4973934;28;20628;-72
2023/12/31 03:05:08;;;;;;;17.30;12.90;;;0.30;99.90;;;;;;4974121;28;20200;-72
2023/12/31 03:07:34;;;;;;;19.60;13.30;;;0.30;99.90;;;;;;4973949;28;20288;-72
2023/12/31 03:10:01;;;;;;;20.50;13.03;;;0.40;99.90;;;;;;4973929;28;20711;-72
2023/12/31 03:12:28;;;;;;;21.07;14.20;;;0.50;99.90;;;;;;4977884;28;20601;-72
2023/12/31 03:14:56;;;;;;;23.20;14.73;;;0.50;99.90;;;;;;4978263;28;20623;-72
2023/12/31 03:17:22;;;;;;;25.90;15.03;;;0.50;99.90;;;;;;4978120;28;20200;-72
2023/12/31 03:19:52;;;;;;;18.33;13.53;;;0.40;99.90;;;;;;4977975;28;20201;-72
2023/12/31 03:22:18;;;;;;;22.13;14.20;;;0.30;99.90;;;;;;4977797;28;20224;-71
2023/12/31 03:24:45;;;;;;;19.43;12.83;;;0.30;99.90;;;;;;4977770;28;20200;-71
2023/12/31 03:27:12;;;;;;;17.90;13.00;;;0.20;99.90;;;;;;4977975;28;20723;-71
2023/12/31 03:29:39;;;;;;;17.57;11.83;;;0.20;99.90;;;;;;4978108;28;20207;-71
2023/12/31 03:32:06;;;;;;;20.17;12.43;;;0.20;99.90;;;;;;4978043;28;20208;-72
2023/12/31 03:34:32;;;;;;;18.37;12.57;;;0.30;99.90;;;;;;4977677;28;20279;-71
2023/12/31 03:37:00;;;;;;;19.30;13.33;;;0.30;99.90;;;;;;4977650;28;20204;-71
2023/12/31 03:39:27;;;;;;;22.53;12.93;;;0.40;99.90;;;;;;4977516;28;20251;-71
2023/12/31 03:41:53;;;;;;;22.37;13.17;;;0.40;99.90;;;;;;4977618;28;20216;-72
2023/12/31 03:44:20;;;;;;;20.20;13.40;;;0.30;99.90;;;;;;4977617;28;20208;-71
2023/12/31 03:46:47;;;;;;;19.57;13.10;;;0.40;99.90;;;;;;4977349;28;20660;-72
2023/12/31 03:49:13;;;;;;;22.87;13.57;;;0.40;99.90;;;;;;4977662;28;20200;-71
2023/12/31 03:51:40;;;;;;;22.43;14.37;;;0.50;99.90;;;;;;4977354;28;20545;-71
2023/12/31 03:54:08;;;;;;;17.80;12.27;;;0.40;99.90;;;;;;4977348;28;20201;-71
2023/12/31 03:56:35;;;;;;;19.10;12.73;;;0.30;99.90;;;;;;4977353;28;20209;-71
2023/12/31 03:59:02;;;;;;;19.03;13.13;;;0.20;99.90;;;;;;4977277;28;20251;-71
2023/12/31 04:01:29;;;;;;;20.07;13.67;;;0.10;99.90;;;;;;4977239;28;20208;-72
2023/12/31 04:03:55;;;;;;;19.40;13.50;;;0.20;99.90;;;;;;4977127;28;20627;-72
2023/12/31 04:06:22;;;;;;;19.00;13.60;;;0.40;99.90;;;;;;4976995;28;20255;-72
2023/12/31 04:08:49;;;;;;;17.57;12.90;;;0.50;99.90;;;;;;4977227;28;20200;-73
2023/12/31 04:11:17;;;;;;;20.23;13.80;;;0.60;99.90;;;;;;4977093;28;20279;-73
2023/12/31 04:13:44;;;;;;;19.97;13.27;;;0.60;99.90;;;;;;4977141;28;20204;-71
2023/12/31 04:16:10;;;;;;;20.40;14.10;;;0.60;99.90;;;;;;4976971;28;20329;-72
2023/12/31 04:18:37;;;;;;;19.10;13.90;;;0.60;99.90;;;;;;4976953;28;20208;-72
2023/12/31 04:21:04;;;;;;;18.97;13.40;;;0.70;99.90;;;;;;4976734;28;20216;-71
2023/12/31 04:23:31;;;;;;;20.57;13.97;;;0.70;99.90;;;;;;4975998;28;20224;-72
2023/12/31 04:25:57;;;;;;;19.23;13.83;;;0.80;99.90;;;;;;4976906;28;20255;-71
2023/12/31 04:28:25;;;;;;;19.43;13.63;;;0.70;99.90;;;;;;4976587;28;20208;-71
2023/12/31 04:30:52;;;;;;;21.13;14.37;;;0.80;99.90;;;;;;4976751;28;20262;-72
2023/12/31 04:33:19;;;;;;;18.97;13.50;;;0.90;99.90;;;;;;4976578;28;20676;-72
2023/12/31 04:35:45;;;;;;;17.17;11.77;;;1.00;99.90;;;;;;4976535;28;20204;-72
2023/12/31 04:38:12;;;;;;;19.03;13.20;;;1.10;99.90;;;;;;4976689;28;20255;-72
2023/12/31 04:40:38;;;;;;;18.73;12.83;;;1.20;99.90;;;;;;4976345;28;20243;-72
2023/12/31 04:43:05;;;;;;;19.30;12.83;;;1.20;99.90;;;;;;4976239;28;20240;-71
2023/12/31 04:45:33;;;;;;;18.73;12.63;;;1.20;99.90;;;;;;4976438;28;20204;-71
2023/12/31 04:48:00;;;;;;;20.13;12.90;;;1.20;99.90;;;;;;4976239;28;20206;-71
2023/12/31 04:50:26;;;;;;;16.03;12.43;;;1.30;99.90;;;;;;4976477;28;20255;-71
2023/12/31 04:52:53;;;;;;;19.40;13.03;;;1.30;99.90;;;;;;4976451;28;20204;-71
2023/12/31 04:55:20;;;;;;;17.73;11.70;;;1.30;99.90;;;;;;4976130;28;20208;-72
2023/12/31 04:57:46;;;;;;;16.73;11.47;;;1.30;99.90;;;;;;4976328;28;20204;-71
2023/12/31 05:00:14;;;;;;;15.47;12.40;;;1.40;99.90;;;;;;4976053;28;20357;-72
2023/12/31 05:02:42;;;;;;;17.73;12.33;;;1.50;99.90;;;;;;4975879;28;20692;-72
2023/12/31 05:05:09;;;;;;;14.93;11.40;;;1.50;99.90;;;;;;4976164;28;20204;-72
2023/12/31 05:07:36;;;;;;;15.33;11.57;;;1.50;99.90;;;;;;4975970;28;20204;-71
2023/12/31 05:10:04;;;;;;;16.27;12.27;;;1.50;99.90;;;;;;4976002;28;20281;-73
2023/12/31 05:12:31;;;;;;;17.00;12.17;;;1.50;99.90;;;;;;4975979;28;20196;-72
2023/12/31 05:14:58;;;;;;;18.03;12.73;;;1.50;99.90;;;;;;4975886;28;20208;-72
2023/12/31 05:17:24;;;;;;;18.10;12.73;;;1.50;99.90;;;;;;4975660;28;20731;-72
2023/12/31 05:19:53;;;;;;;15.57;10.97;;;1.60;99.90;;;;;;4975728;28;20679;-72
2023/12/31 05:22:19;;;;;;;16.17;11.47;;;1.60;99.90;;;;;;4975738;28;20228;-72
2023/12/31 05:24:46;;;;;;;17.77;11.33;;;1.60;99.90;;;;;;4975741;28;20201;-72
2023/12/31 05:27:12;;;;;;;16.23;11.07;;;1.60;99.90;;;;;;4975651;28;20605;-72
2023/12/31 05:29:39;;;;;;;14.97;10.93;;;1.50;99.90;;;;;;4975553;28;20197;-72
2023/12/31 05:32:06;;;;;;;15.87;11.27;;;1.60;99.90;;;;;;4975497;28;20209;-73
2023/12/31 05:34:33;;;;;;;15.03;11.00;;;1.50;99.90;;;;;;4975369;28;20661;-72
2023/12/31 05:37:01;;;;;;;15.77;11.23;;;1.50;99.90;;;;;;4975637;28;20204;-73
2023/12/31 05:39:28;;;;;;;16.63;11.47;;;1.60;99.90;;;;;;4975433;28;20236;-72
2023/12/31 05:41:55;;;;;;;17.27;10.90;;;1.60;99.90;;;;;;4975197;28;20208;-73
2023/12/31 05:44:21;;;;;;;18.97;11.87;;;1.50;99.90;;;;;;4975153;28;20766;-73
2023/12/31 05:46:48;;;;;;;17.67;11.90;;;1.50;99.90;;;;;;4975457;28;20200;-72
2023/12/31 05:49:15;;;;;;;15.83;11.00;;;1.40;99.90;;;;;;4975428;28;20263;-72
2023/12/31 05:51:42;;;;;;;16.20;11.80;;;1.40;99.90;;;;;;4967302;28;20212;-72
2023/12/31 05:54:10;;;;;;;16.53;12.00;;;1.40;99.90;;;;;;4975172;28;20292;-72
2023/12/31 05:56:37;;;;;;;18.80;12.30;;;1.40;99.90;;;;;;4975156;28;20212;-72
2023/12/31 05:59:03;;;;;;;16.50;12.10;;;1.50;99.90;;;;;;4975042;28;20204;-72
2023/12/31 06:01:30;;;;;;;16.87;11.20;;;1.50;99.90;;;;;;4975204;28;20251;-72
2023/12/31 06:03:57;;;;;;;15.73;11.20;;;1.50;99.90;;;;;;4975036;28;20624;-72
2023/12/31 06:06:24;;;;;;;16.03;10.70;;;1.60;99.90;;;;;;4974981;28;20196;-72
2023/12/31 06:08:51;;;;;;;17.17;11.20;;;1.70;99.90;;;;;;4974987;28;20545;-72
2023/12/31 06:11:18;;;;;;;16.83;10.93;;;1.80;99.90;;;;;;4974765;28;20222;-72
2023/12/31 06:13:45;;;;;;;15.80;10.87;;;1.80;99.90;;;;;;4975008;28;20247;-72
2023/12/31 06:16:12;;;;;;;16.30;11.43;;;1.90;99.90;;;;;;4974900;28;20200;-72
2023/12/31 06:18:38;;;;;;;16.07;10.90;;;1.90;99.90;;;;;;4974768;28;20257;-72
2023/12/31 06:21:05;;;;;;;15.77;11.43;;;1.90;99.90;;;;;;4974701;28;20209;-72
2023/12/31 06:23:32;;;;;;;15.90;11.87;;;2.00;99.90;;;;;;4974580;28;20230;-72
2023/12/31 06:25:59;;;;;;;15.47;11.13;;;2.00;99.90;;;;;;4974471;28;20200;-72
2023/12/31 06:28:26;;;;;;;15.83;10.80;;;2.00;99.90;;;;;;4974494;28;20204;-71
2023/12/31 06:30:53;;;;;;;16.13;11.27;;;2.00;99.90;;;;;;4974634;28;20204;-72
2023/12/31 06:33:20;;;;;;;15.77;10.93;;;2.10;99.90;;;;;;4974410;28;20600;-72
2023/12/31 06:35:46;;;;;;;14.23;10.53;;;2.00;99.90;;;;;;4974513;28;20200;-72
2023/12/31 06:38:13;;;;;;;14.80;10.40;;;2.00;99.90;;;;;;4974438;28;20204;-73
2023/12/31 06:40:39;;;;;;;14.20;9.87;;;2.00;99.90;;;;;;4974324;28;20204;-72
2023/12/31 06:43:06;;;;;;;13.43;9.67;;;2.00;99.90;;;;;;4974152;28;20303;-72
2023/12/31 06:45:34;;;;;;;15.17;10.63;;;2.00;99.90;;;;;;4973882;28;20207;-72
2023/12/31 06:48:01;;;;;;;16.53;11.87;;;1.90;99.90;;;;;;4974239;28;20588;-72
2023/12/31 06:50:27;;;;;;;15.13;11.13;;;1.90;99.90;;;;;;4974306;28;20234;-73
2023/12/31 06:52:54;;;;;;;14.03;10.00;;;1.90;99.90;;;;;;4974277;28;20264;-73
2023/12/31 06:55:21;;;;;;;14.67;9.70;;;1.80;99.90;;;;;;4973975;28;20672;-73
2023/12/31 06:57:49;;;;;;;13.90;9.00;;;1.80;99.90;;;;;;4974045;28;20200;-71
2023/12/31 07:00:16;;;;;;;12.30;9.40;;;1.90;99.90;;;;;;4974188;28;20240;-72
2023/12/31 07:02:44;;;;;;;13.50;9.93;;;1.90;99.90;;;;;;4973957;28;20204;-72
2023/12/31 07:05:11;;;;;;;14.07;10.37;;;1.80;99.90;;;;;;4974069;28;20259;-72
2023/12/31 07:07:37;;;;;;;14.63;10.37;;;1.90;99.90;;;;;;4974052;28;20344;-72
2023/12/31 07:10:05;;;;;;;15.23;11.10;;;1.80;99.90;;;;;;4974235;28;20207;-72
2023/12/31 07:12:32;;;;;;;12.70;9.77;;;1.90;99.90;;;;;;4974180;28;20200;-72
2023/12/31 07:14:59;;;;;;;14.47;10.20;;;1.80;99.90;;;;;;4973964;28;20200;-72
2023/12/31 07:17:25;;;;;;;14.93;11.80;;;1.80;99.90;;;;;;4973945;28;20212;-72
2023/12/31 07:19:53;;;;;;;17.10;12.00;;;1.80;99.90;;;;;;4973906;28;20715;-72
2023/12/31 07:22:20;;;;;;;15.53;10.70;;;1.80;99.90;;;;;;4973755;28;20200;-72
2023/12/31 07:24:46;;;;;;;16.27;11.10;;;1.90;99.90;;;;;;4974074;28;20236;-72
2023/12/31 07:27:13;;;;;;;15.33;11.77;;;1.90;99.90;;;;;;4973991;28;20196;-72
2023/12/31 07:29:40;;;;;;;13.53;10.53;;;1.90;99.90;;;;;;4973837;28;20259;-72
2023/12/31 07:32:06;;;;;;;17.17;11.77;;;2.00;99.90;;;;;;4973828;28;20652;-72
2023/12/31 07:34:33;;;;;;;16.67;12.37;;;2.10;99.90;;;;;;4973739;28;20200;-72
2023/12/31 07:37:01;;;;;;;14.97;10.60;;;2.10;99.90;;;;;;4973847;28;20204;-72
2023/12/31 07:39:28;;;;;;;18.20;11.87;;;2.20;99.90;;;;;;4973661;28;20212;-72
2023/12/31 07:41:55;;;;;;;14.30;10.97;;;2.30;99.90;;;;;;4973588;28;20782;-72
2023/12/31 07:44:22;;;;;;;20.43;14.90;;;2.30;99.90;;;;;;4973744;28;20232;-72
2023/12/31 07:46:48;;;;;;;15.37;11.03;;;2.40;99.90;;;;;;4973660;28;20211;-72
2023/12/31 07:49:15;;;;;;;17.57;11.57;;;2.50;99.90;;;;;;4973451;28;20204;-72
2023/12/31 07:51:42;;;;;;;17.10;12.33;;;2.60;99.90;;;;;;4973424;28;20263;-72
2023/12/31 07:54:09;;;;;;;14.50;11.13;;;2.60;99.90;;;;;;4973406;28;20238;-72
2023/12/31 07:56:36;;;;;;;15.13;11.77;;;2.70;99.90;;;;;;4973273;28;20653;-72
2023/12/31 07:59:03;;;;;;;27.10;19.13;;;2.80;99.90;;;;;;4976323;28;20247;-71
2023/12/31 08:01:29;;;;;;;15.83;11.93;;;2.80;99.90;;;;;;4977203;28;20204;-71
2023/12/31 08:03:56;;;;;;;15.03;11.60;;;2.90;99.90;;;;;;4976968;28;20217;-72
2023/12/31 08:06:23;;;;;;;13.70;11.00;;;3.00;99.90;;;;;;4977365;28;20197;-71
2023/12/31 08:08:49;;;;;;;15.20;11.50;;;3.00;99.90;;;;;;4977232;28;20616;-72
2023/12/31 08:11:18;;;;;;;13.70;10.17;;;3.10;99.90;;;;;;4976847;28;20296;-72
2023/12/31 08:13:45;;;;;;;14.60;10.93;;;3.10;99.90;;;;;;4976771;28;20211;-72
2023/12/31 08:16:12;;;;;;;12.17;9.83;;;3.20;99.90;;;;;;4976399;28;20252;-72
2023/12/31 08:18:39;;;;;;;12.57;10.30;;;3.20;99.90;;;;;;4975942;28;20241;-72
2023/12/31 08:21:05;;;;;;;14.60;10.20;;;3.20;99.90;;;;;;4976360;28;20251;-72
2023/12/31 08:23:32;;;;;;;12.47;10.03;;;3.30;99.90;;;;;;4976599;28;20300;-72
2023/12/31 08:25:59;;;;;;;14.20;9.90;;;3.40;99.90;;;;;;4976475;28;20203;-72
2023/12/31 08:28:27;;;;;;;11.53;9.73;;;3.40;99.90;;;;;;4976430;28;20248;-72
2023/12/31 08:30:54;;;;;;;13.60;10.53;;;3.40;99.90;;;;;;4976400;28;20233;-72
2023/12/31 08:33:20;;;;;;;12.83;10.33;;;3.50;99.90;;;;;;4976757;28;20262;-72
2023/12/31 08:35:47;;;;;;;14.77;10.10;;;3.50;99.90;;;;;;4976471;28;20206;-72
2023/12/31 08:38:14;;;;;;;12.60;10.00;;;3.60;99.90;;;;;;4976522;28;20204;-72
2023/12/31 08:40:40;;;;;;;13.60;9.80;;;3.60;99.90;;;;;;4976364;28;20212;-71
2023/12/31 08:43:07;;;;;;;13.30;9.80;;;3.60;99.90;;;;;;4976090;28;20239;-72
2023/12/31 08:45:39;;;;;;;11.90;9.37;;;3.70;99.90;;;;;;4976164;28;20210;-71
2023/12/31 08:48:07;;;;;;;11.87;9.70;;;3.70;99.90;;;;;;4976187;28;20211;-72
2023/12/31 08:50:33;;;;;;;12.53;10.00;;;3.80;99.90;;;;;;4976236;28;20682;-71
2023/12/31 08:53:00;;;;;;;12.27;9.90;;;3.80;99.90;;;;;;4976352;28;20254;-75
2023/12/31 08:55:26;;;;;;;14.73;10.43;;;3.90;99.90;;;;;;4976315;28;20215;-72
2023/12/31 08:57:53;;;;;;;11.53;9.20;;;3.90;99.90;;;;;;4976198;28;20200;-71
2023/12/31 09:00:20;;;;;;;10.07;8.20;;;4.00;99.90;;;;;;4976024;28;20207;-71
2023/12/31 09:02:48;;;;;;;10.33;9.10;;;4.10;99.90;;;;;;4976029;28;20596;-71
2023/12/31 09:05:15;;;;;;;11.50;8.73;;;4.20;99.90;;;;;;4976187;28;20282;-71
2023/12/31 09:07:41;;;;;;;9.77;7.77;;;4.30;99.90;;;;;;4976069;28;20267;-72
2023/12/31 09:10:09;;;;;;;10.23;8.10;;;4.30;99.90;;;;;;4975607;28;20270;-72
2023/12/31 09:12:36;;;;;;;10.77;8.00;;;4.40;99.90;;;;;;4975907;28;20621;-71
2023/12/31 09:15:03;;;;;;;8.77;7.17;;;4.40;99.90;;;;;;4975807;28;20297;-71
2023/12/31 09:17:29;;;;;;;9.17;6.83;;;4.50;99.90;;;;;;4975976;28;20211;-71
2023/12/31 09:19:57;;;;;;;9.43;7.77;;;4.50;99.90;;;;;;4975850;28;20258;-71
2023/12/31 09:22:25;;;;;;;8.97;7.93;;;4.60;99.90;;;;;;4975821;28;20204;-71
2023/12/31 09:24:52;;;;;;;16.53;14.80;;;4.70;99.90;;;;;;4975592;28;20302;-71
2023/12/31 09:27:19;;;;;;;6.03;5.43;;;4.80;99.90;;;;;;4975682;28;20648;-71
2023/12/31 09:29:46;;;;;;;7.40;6.10;;;4.90;99.90;;;;;;4975769;28;20209;-71
2023/12/31 09:32:13;;;;;;;8.73;6.27;;;5.10;99.90;;;;;;4975736;28;20208;-71
2023/12/31 09:34:40;;;;;;;6.53;5.47;;;5.20;99.90;;;;;;4975594;28;20291;-71
2023/12/31 09:37:08;;;;;;;6.87;5.47;;;5.20;99.90;;;;;;4975471;28;20212;-72
2023/12/31 09:39:34;;;;;;;6.70;4.83;;;5.40;99.90;;;;;;4975416;28;20200;-71
2023/12/31 09:42:07;;;;;;;5.40;4.30;;;5.50;99.90;;;;;;4975155;28;20201;-72
2023/12/31 09:44:35;;;;;;;5.30;4.57;;;5.60;99.90;;;;;;4975064;28;20710;-71
2023/12/31 09:47:06;;;;;;;7.27;4.87;;;5.70;99.90;;;;;;4975297;28;20200;-71
2023/12/31 09:49:34;;;;;;;6.97;5.03;;;5.80;99.90;;;;;;4975316;28;20287;-71
2023/12/31 09:52:03;;;;;;;6.27;5.03;;;6.00;99.90;;;;;;4975118;28;20345;-71
2023/12/31 09:54:31;;;;;;;5.70;4.70;;;5.90;99.90;;;;;;4974976;28;20568;-71
2023/12/31 09:56:58;;;;;;;7.10;5.93;;;5.90;99.90;;;;;;4975069;28;20205;-71
2023/12/31 09:59:26;;;;;;;5.63;4.70;;;5.90;99.90;;;;;;4975051;28;20220;-72
2023/12/31 10:01:54;;;;;;;4.67;4.17;;;5.90;99.90;;;;;;4974899;28;20204;-72
2023/12/31 10:04:22;;;;;;;4.93;4.33;;;6.10;99.90;;;;;;4974691;28;20714;-72
2023/12/31 10:06:50;;;;;;;5.10;4.27;;;6.10;99.90;;;;;;4974764;28;20196;-72
2023/12/31 10:09:19;;;;;;;5.77;4.20;;;6.20;99.90;;;;;;4974876;28;20256;-72
2023/12/31 10:11:47;;;;;;;5.67;4.73;;;6.10;99.90;;;;;;4974661;28;20244;-72
2023/12/31 10:14:15;;;;;;;4.73;4.00;;;6.10;99.90;;;;;;4974589;28;20612;-72
2023/12/31 10:16:43;;;;;;;4.70;4.10;;;6.10;99.90;;;;;;4974711;28;20236;-72
2023/12/31 10:19:10;;;;;;;5.77;4.70;;;6.20;99.90;;;;;;4974570;28;20196;-74
2023/12/31 10:21:37;;;;;;;4.90;4.10;;;6.20;99.90;;;;;;4973743;28;20223;-72
2023/12/31 10:24:03;;;;;;;6.40;4.43;;;6.20;99.90;;;;;;4974583;28;20220;-72
2023/12/31 10:26:31;;;;;;;4.63;4.07;;;6.10;99.90;;;;;;4974495;28;20251;-72
2023/12/31 10:28:59;;;;;;;6.20;4.37;;;6.10;99.90;;;;;;4974287;28;20648;-72
2023/12/31 10:31:26;;;;;;;4.77;4.23;;;6.20;99.90;;;;;;4974310;28;20211;-72
2023/12/31 10:33:52;;;;;;;7.23;4.80;;;6.20;99.90;;;;;;4974419;28;20197;-71
2023/12/31 10:36:22;;;;;;;5.83;4.60;;;6.20;99.90;;;;;;4974548;28;20205;-72
2023/12/31 10:38:50;;;;;;;6.30;4.87;;;6.30;99.90;;;;;;4974355;28;20573;-71
2023/12/31 10:41:20;;;;;;;6.97;4.63;;;6.40;99.90;;;;;;4974367;28;20278;-71
2023/12/31 10:43:48;;;;;;;4.77;3.97;;;6.50;99.90;;;;;;4974090;28;20228;-72
2023/12/31 10:46:18;;;;;;;7.80;4.10;;;6.50;99.90;;;;;;4974171;28;20247;-72
2023/12/31 10:48:48;;;;;;;5.40;4.60;;;6.50;99.90;;;;;;4974090;28;20201;-71
2023/12/31 10:51:22;;;;;;;5.70;4.60;;;6.50;99.90;;;;;;4974480;28;20300;-71
2023/12/31 10:53:52;;;;;;;5.03;4.30;;;6.60;99.90;;;;;;4974228;28;20210;-72
2023/12/31 10:56:19;;;;;;;4.80;4.17;;;6.70;99.90;;;;;;4974081;28;20227;-71
2023/12/31 10:58:47;;;;;;;4.47;4.07;;;6.70;99.90;;;;;;4973837;28;20656;-72
2023/12/31 11:01:14;;;;;;;5.93;4.70;;;6.80;99.90;;;;;;4973936;28;20197;-72
2023/12/31 11:03:44;;;;;;;4.93;4.33;;;7.00;99.90;;;;;;4974135;28;20207;-71
2023/12/31 11:06:11;;;;;;;6.93;4.87;;;7.10;99.90;;;;;;4974046;28;20232;-72
2023/12/31 11:08:38;;;;;;;4.47;4.00;;;7.30;99.90;;;;;;4973954;28;20200;-72
2023/12/31 11:11:05;;;;;;;4.97;4.20;;;7.70;99.90;;;;;;4973863;28;20196;-72
2023/12/31 11:13:35;;;;;;;5.13;4.60;;;7.90;99.90;;;;;;4973874;28;20196;-72
2023/12/31 11:16:05;;;;;;;4.63;4.13;;;8.40;99.90;;;;;;4973735;28;20208;-72
2023/12/31 11:18:55;;;;;;;4.90;4.30;;;9.20;99.90;;;;;;4973926;28;20530;-72
2023/12/31 11:21:37;;;;;;;4.43;4.00;;;9.50;99.90;;;;;;4973811;28;20200;-72
2023/12/31 11:24:14;;;;;;;5.43;3.87;;;9.20;99.90;;;;;;4973572;28;20256;-72
2023/12/31 11:26:41;;;;;;;4.70;4.20;;;9.00;99.90;;;;;;4973926;28;20204;-72
2023/12/31 11:29:10;;;;;;;4.47;4.00;;;8.80;99.90;;;;;;4973774;28;20207;-72
2023/12/31 11:31:40;;;;;;;5.63;4.43;;;8.60;99.90;;;;;;4974140;28;20549;-72
2023/12/31 11:34:09;;;;;;;4.60;4.20;;;8.60;99.90;;;;;;4977636;28;20214;-72
2023/12/31 11:36:35;;;;;;;5.43;4.63;;;8.60;99.90;;;;;;4977359;28;20216;-72
2023/12/31 11:39:06;;;;;;;5.53;4.53;;;8.30;99.90;;;;;;4977751;28;20204;-72
2023/12/31 11:41:33;;;;;;;5.90;4.57;;;8.20;99.90;;;;;;4977687;28;20200;-72
2023/12/31 11:44:00;;;;;;;6.30;5.67;;;8.00;99.90;;;;;;4977171;28;20228;-72
2023/12/31 11:46:35;;;;;;;5.43;4.60;;;7.90;99.90;;;;;;4977465;28;20222;-72
2023/12/31 11:49:02;;;;;;;5.03;4.37;;;8.00;99.90;;;;;;4977414;28;20200;-72
2023/12/31 11:51:30;;;;;;;4.77;4.07;;;8.20;99.90;;;;;;4977357;28;20624;-72
2023/12/31 11:53:58;;;;;;;5.07;4.33;;;8.20;99.90;;;;;;4977469;28;20263;-72
2023/12/31 11:56:27;;;;;;;5.10;4.30;;;8.20;99.90;;;;;;4977335;28;20235;-72
2023/12/31 11:58:55;;;;;;;4.47;3.90;;;8.10;99.90;;;;;;4977281;28;20295;-72
2023/12/31 12:01:22;;;;;;;5.83;4.37;;;8.10;99.90;;;;;;4977001;28;20224;-72
2023/12/31 12:03:49;;;;;;;5.67;4.00;;;8.20;99.90;;;;;;4977404;28;20200;-72
2023/12/31 12:06:16;;;;;;;5.23;4.17;;;8.10;99.90;;;;;;4977043;28;20695;-72
2023/12/31 12:08:44;;;;;;;4.77;3.87;;;8.10;99.90;;;;;;4977235;28;20203;-72
2023/12/31 12:11:12;;;;;;;4.33;3.93;;;8.20;99.90;;;;;;4977019;28;20592;-72
2023/12/31 12:13:38;;;;;;;4.97;4.07;;;8.20;99.90;;;;;;4977007;28;20196;-72
2023/12/31 12:16:05;;;;;;;4.40;3.80;;;8.40;99.90;;;;;;4976736;28;20253;-72
2023/12/31 12:18:32;;;;;;;5.03;3.80;;;8.40;99.90;;;;;;4977098;28;20204;-72
2023/12/31 12:20:58;;;;;;;4.40;4.00;;;8.30;99.90;;;;;;4976835;28;20214;-72
2023/12/31 12:23:25;;;;;;;4.97;4.47;;;8.20;99.90;;;;;;4976800;28;20251;-72
2023/12/31 12:25:53;;;;;;;4.40;4.00;;;8.20;99.90;;;;;;4976672;28;20628;-72
2023/12/31 12:28:20;;;;;;;4.80;3.93;;;8.10;99.90;;;;;;4976685;28;20204;-73
2023/12/31 12:30:47;;;;;;;4.30;3.90;;;8.00;99.90;;;;;;4976591;28;20596;-72
2023/12/31 12:33:13;;;;;;;4.87;4.07;;;7.90;99.90;;;;;;4976566;28;20611;-72
2023/12/31 12:35:42;;;;;;;4.70;4.17;;;7.80;99.90;;;;;;4976688;28;20196;-72
2023/12/31 12:38:09;;;;;;;4.20;3.73;;;7.60;99.90;;;;;;4976588;28;20211;-72
2023/12/31 12:40:35;;;;;;;4.13;3.70;;;7.50;99.90;;;;;;4976457;28;20683;-72
2023/12/31 12:43:05;;;;;;;5.43;4.87;;;7.30;99.90;;;;;;4975758;28;20239;-72